createdAt,value
2019-04-22T05:19:15.493Z,19.70
2019-04-22T05:21:40.580Z,19.80
2019-04-22T05:26:40.289Z,19.90
2019-04-22T05:29:08.039Z,19.90
2019-04-22T05:34:04.526Z,20.00
2019-04-22T05:36:28.553Z,20.00
2019-04-22T05:39:00.201Z,20.00
2019-04-22T05:41:32.309Z,20.00
2019-04-22T05:43:59.917Z,20.10
2019-04-22T05:46:26.254Z,20.10
2019-04-22T05:49:03.156Z,20.10
2019-04-22T05:51:29.485Z,20.10
2019-04-22T05:53:59.538Z,20.10
2019-04-22T05:56:27.393Z,20.10
2019-04-22T05:58:55.156Z,20.10
2019-04-22T06:03:52.811Z,20.20
2019-04-22T06:08:46.946Z,20.30
2019-04-22T06:11:16.846Z,20.30
2019-04-22T06:13:33.039Z,20.30
2019-04-22T06:16:16.218Z,20.40
2019-04-22T06:18:38.443Z,20.40
2019-04-22T06:21:11.512Z,20.40
2019-04-22T06:23:42.702Z,20.50
2019-04-22T06:31:13.897Z,20.60
2019-04-22T06:33:34.491Z,20.70
2019-04-22T06:36:05.115Z,20.70
2019-04-22T06:41:07.210Z,20.80
2019-04-22T06:43:29.615Z,20.80
2019-04-22T06:45:52.564Z,20.80
2019-04-22T06:48:23.627Z,20.90
2019-04-22T06:50:55.392Z,20.90
2019-04-22T06:53:23.963Z,20.90
2019-04-22T06:55:51.669Z,21.00
2019-04-22T06:58:36.847Z,20.90
2019-04-22T07:00:44.640Z,21.00
2019-04-22T07:05:49.477Z,21.00
2019-04-22T07:13:19.114Z,21.10
2019-04-22T07:15:50.389Z,21.10
2019-04-22T07:20:37.887Z,21.10
2019-04-22T07:23:13.839Z,21.10
2019-04-22T07:25:40.581Z,21.10
2019-04-22T07:28:13.825Z,21.10
2019-04-22T07:30:34.990Z,21.10
2019-04-22T07:35:36.212Z,21.10
2019-04-22T07:38:06.141Z,21.10
2019-04-22T07:40:34.158Z,21.00
2019-04-22T07:43:04.281Z,21.10
2019-04-22T07:45:32.503Z,21.10
2019-04-22T07:52:52.167Z,21.10
2019-04-22T07:55:25.867Z,21.00
2019-04-22T07:57:51.771Z,21.10
2019-04-22T08:00:29.136Z,21.00
2019-04-22T08:05:33.346Z,21.00
2019-04-22T08:08:00.678Z,21.00
2019-04-22T08:10:30.209Z,21.00
2019-04-22T08:12:58.058Z,21.00
2019-04-22T08:15:31.292Z,21.00
2019-04-22T08:20:25.245Z,21.00
2019-04-22T08:22:56.088Z,21.00
2019-04-22T08:25:17.970Z,21.00
2019-04-22T08:27:53.368Z,21.00
2019-04-22T08:32:46.166Z,21.00
2019-04-22T08:35:20.001Z,21.00
2019-04-22T08:37:50.951Z,21.00
2019-04-22T08:40:12.529Z,21.00
2019-04-22T08:42:49.786Z,21.00
2019-04-22T08:47:38.442Z,21.00
2019-04-22T08:50:12.030Z,21.00
2019-04-22T08:52:33.774Z,21.00
2019-04-22T08:57:46.950Z,21.00
2019-04-22T09:00:02.783Z,21.00
2019-04-22T09:02:32.664Z,21.10
2019-04-22T09:07:31.486Z,21.10
2019-04-22T09:09:55.811Z,21.10
2019-04-22T09:12:34.758Z,21.10
2019-04-22T09:19:58.747Z,21.20
2019-04-22T09:22:21.818Z,21.20
2019-04-22T09:24:54.714Z,21.20
2019-04-22T09:27:25.153Z,21.20
2019-04-22T09:29:50.097Z,21.20
2019-04-22T09:32:18.983Z,21.30
2019-04-22T09:34:47.639Z,21.20
2019-04-22T09:37:20.775Z,21.30
2019-04-22T09:39:51.812Z,21.30
2019-04-22T09:42:14.540Z,21.30
2019-04-22T09:44:47.858Z,21.30
2019-04-22T09:47:12.883Z,21.30
2019-04-22T09:52:13.313Z,21.40
2019-04-22T09:54:46.413Z,21.40
2019-04-22T09:57:10.229Z,21.40
2019-04-22T09:59:36.877Z,21.40
2019-04-22T10:02:19.854Z,21.40
2019-04-22T10:04:33.138Z,21.40
2019-04-22T10:07:04.276Z,21.50
2019-04-22T10:10:00.293Z,21.50
2019-04-22T10:12:02.158Z,21.50
2019-04-22T10:14:33.787Z,21.50
2019-04-22T10:17:04.980Z,21.50
2019-04-22T10:19:29.769Z,21.50
2019-04-22T10:22:04.517Z,21.60
2019-04-22T10:24:24.764Z,21.60
2019-04-22T10:26:57.103Z,21.60
2019-04-22T10:29:24.750Z,21.60
2019-04-22T10:31:57.534Z,21.60
2019-04-22T10:34:11.521Z,21.60
2019-04-22T10:36:27.962Z,21.60
2019-04-22T10:38:58.042Z,21.60
2019-04-22T10:41:26.429Z,21.70
2019-04-22T10:43:55.177Z,21.70
2019-04-22T10:46:24.264Z,21.70
2019-04-22T10:48:52.889Z,21.70
2019-04-22T10:53:49.649Z,21.70
2019-04-22T10:56:18.980Z,21.70
2019-04-22T10:58:48.818Z,21.70
2019-04-22T11:01:16.014Z,21.80
2019-04-22T11:03:45.634Z,21.80
2019-04-22T11:06:14.974Z,21.80
2019-04-22T11:08:50.194Z,21.80
2019-04-22T11:11:29.306Z,21.80
2019-04-22T11:13:41.871Z,21.80
2019-04-22T11:16:09.828Z,21.90
2019-04-22T11:18:38.385Z,21.90
2019-04-22T11:21:07.871Z,21.90
2019-04-22T11:23:38.574Z,21.90
2019-04-22T11:26:06.372Z,21.90
2019-04-22T11:28:35.923Z,21.90
2019-04-22T11:31:04.474Z,22.00
2019-04-22T11:33:34.542Z,22.00
2019-04-22T11:36:03.747Z,22.00
2019-04-22T11:38:31.047Z,22.00
2019-04-22T11:41:01.896Z,22.00
2019-04-22T11:43:30.475Z,22.00
2019-04-22T11:45:59.459Z,22.10
2019-04-22T11:48:27.113Z,22.10
2019-04-22T11:50:55.762Z,22.10
2019-04-22T11:53:24.873Z,22.10
2019-04-22T11:55:53.202Z,22.10
2019-04-22T11:58:21.866Z,22.10
2019-04-22T12:03:20.881Z,22.20
2019-04-22T12:05:48.128Z,22.20
2019-04-22T12:08:17.319Z,22.20
2019-04-22T12:10:52.613Z,22.20
2019-04-22T12:13:15.827Z,22.20
2019-04-22T12:15:44.933Z,22.20
2019-04-22T12:18:13.111Z,22.20
2019-04-22T12:20:41.419Z,22.30
2019-04-22T12:23:09.491Z,22.30
2019-04-22T12:25:47.708Z,22.30
2019-04-22T12:28:06.658Z,22.30
2019-04-22T12:30:35.393Z,22.30
2019-04-22T12:33:04.693Z,22.30
2019-04-22T12:35:34.505Z,22.30
2019-04-22T12:38:06.227Z,22.30
2019-04-22T12:40:41.204Z,22.40
2019-04-22T12:43:04.721Z,22.40
2019-04-22T12:45:30.043Z,22.40
2019-04-22T12:47:58.291Z,22.40
2019-04-22T12:50:32.810Z,22.40
2019-04-22T12:52:59.358Z,22.40
2019-04-22T12:55:24.054Z,22.40
2019-04-22T12:57:56.705Z,22.50
2019-04-22T13:00:22.477Z,22.50
2019-04-22T13:02:51.391Z,22.50
2019-04-22T13:05:20.075Z,22.50
2019-04-22T13:07:47.577Z,22.50
2019-04-22T13:10:15.862Z,22.50
2019-04-22T13:12:44.925Z,22.50
2019-04-22T13:15:14.110Z,22.50
2019-04-22T13:17:42.238Z,22.60
2019-04-22T13:20:16.068Z,22.60
2019-04-22T13:22:40.953Z,22.60
2019-04-22T13:25:10.260Z,22.60
2019-04-22T13:27:39.337Z,22.70
2019-04-22T13:30:10.034Z,22.70
2019-04-22T13:32:38.668Z,22.70
2019-04-22T13:35:07.298Z,22.70
2019-04-22T13:37:36.930Z,22.70
2019-04-22T13:40:05.516Z,22.80
2019-04-22T13:42:35.445Z,22.80
2019-04-22T13:45:04.127Z,22.80
2019-04-22T13:47:46.490Z,22.80
2019-04-22T13:50:32.586Z,22.80
2019-04-22T13:53:13.236Z,22.80
2019-04-22T13:55:23.992Z,22.90
2019-04-22T13:59:59.820Z,22.90
2019-04-22T14:02:28.923Z,22.90
2019-04-22T14:04:59.153Z,22.90
2019-04-22T14:07:26.919Z,23.00
2019-04-22T14:12:24.720Z,23.00
2019-04-22T14:14:54.453Z,23.10
2019-04-22T14:17:22.964Z,23.10
2019-04-22T14:19:51.025Z,23.10
2019-04-22T14:22:21.949Z,23.10
2019-04-22T14:24:49.793Z,23.20
2019-04-22T14:27:30.692Z,23.20
2019-04-22T14:29:47.355Z,23.20
2019-04-22T14:32:21.179Z,23.20
2019-04-22T14:34:45.065Z,23.30
2019-04-22T14:37:14.223Z,23.30
2019-04-22T14:39:42.237Z,23.30
2019-04-22T14:44:15.606Z,23.30
2019-04-22T14:47:31.430Z,23.40
2019-04-22T14:50:01.032Z,23.40
2019-04-22T14:52:30.676Z,23.40
2019-04-22T14:54:45.835Z,23.40
2019-04-22T14:57:05.174Z,23.50
2019-04-22T14:59:32.561Z,23.50
2019-04-22T15:02:01.491Z,23.50
2019-04-22T15:04:31.059Z,23.50
2019-04-22T15:07:01.068Z,23.60
2019-04-22T15:09:29.962Z,23.60
2019-04-22T15:12:09.318Z,23.60
2019-04-22T15:14:27.645Z,23.60
2019-04-22T15:17:08.965Z,23.60
2019-04-22T15:19:41.617Z,23.70
2019-04-22T15:22:10.520Z,23.70
2019-04-22T15:24:40.604Z,23.70
2019-04-22T15:27:08.754Z,23.70
2019-04-22T15:29:38.970Z,23.80
2019-04-22T15:32:07.574Z,23.80
2019-04-22T15:34:36.555Z,23.80
2019-04-22T15:37:04.454Z,23.90
2019-04-22T15:39:34.004Z,23.90
2019-04-22T15:42:11.669Z,23.90
2019-04-22T15:44:31.652Z,23.90
2019-04-22T15:47:01.033Z,24.00
2019-04-22T15:49:29.948Z,24.00
2019-04-22T15:52:00.760Z,24.00
2019-04-22T15:54:27.805Z,24.00
2019-04-22T15:56:56.854Z,24.10
2019-04-22T15:59:44.459Z,24.10
2019-04-22T16:01:58.091Z,24.10
2019-04-22T16:04:22.992Z,24.20
2019-04-22T16:06:52.622Z,24.20
2019-04-22T16:09:20.627Z,24.20
2019-04-22T16:11:49.780Z,24.20
2019-04-22T16:14:23.883Z,24.30
2019-04-22T16:16:46.458Z,24.30
2019-04-22T16:19:16.898Z,24.30
2019-04-22T16:21:53.595Z,24.30
2019-04-22T16:24:18.210Z,24.30
2019-04-22T16:26:51.927Z,24.30
2019-04-22T16:29:21.196Z,24.30
2019-04-22T16:31:49.551Z,24.30
2019-04-22T16:34:17.771Z,24.40
2019-04-22T16:36:47.148Z,24.40
2019-04-22T16:39:15.533Z,24.40
2019-04-22T16:41:46.565Z,24.50
2019-04-22T16:44:14.441Z,24.50
2019-04-22T16:46:43.648Z,24.50
2019-04-22T16:49:11.730Z,24.60
2019-04-22T16:51:40.553Z,24.60
2019-04-22T16:54:09.204Z,24.70
2019-04-22T16:56:39.573Z,24.70
2019-04-22T17:02:50.653Z,24.80
2019-04-22T17:05:25.616Z,24.90
2019-04-22T17:07:54.397Z,24.90
2019-04-22T17:10:23.802Z,24.90
2019-04-22T17:13:01.436Z,25.00
2019-04-22T17:15:22.202Z,25.00
2019-04-22T17:17:49.510Z,25.00
2019-04-22T17:20:17.892Z,25.00
2019-04-22T17:22:47.307Z,25.00
2019-04-22T17:25:16.280Z,25.10
2019-04-22T17:27:45.586Z,25.10
2019-04-22T17:30:13.016Z,25.10
2019-04-22T17:32:44.995Z,25.10
2019-04-22T17:35:10.649Z,25.20
2019-04-22T17:37:40.993Z,25.20
2019-04-22T17:40:24.432Z,25.10
2019-04-22T17:43:00.702Z,25.20
2019-04-22T17:46:00.335Z,25.10
2019-04-22T17:49:43.055Z,25.10
2019-04-22T17:52:10.716Z,25.10
2019-04-22T17:54:37.408Z,25.00
2019-04-22T17:57:06.269Z,25.00
2019-04-22T17:59:34.581Z,25.00
2019-04-22T18:02:02.490Z,25.00
2019-04-22T18:04:14.371Z,24.90
2019-04-22T18:07:07.800Z,24.90
2019-04-22T18:09:57.930Z,24.90
2019-04-22T18:12:04.746Z,24.80
2019-04-22T18:14:41.667Z,24.80
2019-04-22T18:17:05.815Z,24.80
2019-04-22T18:19:27.730Z,24.70
2019-04-22T18:21:54.815Z,24.70
2019-04-22T18:24:13.650Z,24.70
2019-04-22T18:26:55.447Z,24.60
2019-04-22T18:29:23.989Z,24.60
2019-04-22T18:31:44.233Z,24.60
2019-04-22T18:36:41.643Z,24.50
2019-04-22T18:39:22.626Z,24.50
2019-04-22T18:41:47.193Z,24.50
2019-04-22T18:44:16.927Z,24.40
2019-04-22T18:46:44.519Z,24.40
2019-04-22T18:49:11.070Z,24.30
2019-04-22T18:51:48.917Z,24.30
2019-04-22T18:54:24.549Z,24.30
2019-04-22T18:56:51.008Z,24.20
2019-04-22T18:59:10.480Z,24.20
2019-04-22T19:01:30.158Z,24.20
2019-04-22T19:04:08.981Z,24.10
2019-04-22T19:06:50.268Z,24.10
2019-04-22T19:09:22.131Z,24.10
2019-04-22T19:12:03.128Z,24.10
2019-04-22T19:14:17.553Z,24.00
2019-04-22T19:16:48.277Z,24.10
2019-04-22T19:19:29.775Z,24.00
2019-04-22T19:21:45.515Z,24.00
2019-04-22T19:24:09.318Z,24.00
2019-04-22T19:26:50.501Z,24.00
2019-04-22T19:29:16.858Z,24.00
2019-04-22T19:31:43.627Z,24.00
2019-04-22T19:34:12.698Z,24.00
2019-04-22T19:36:40.891Z,24.00
2019-04-22T19:39:07.973Z,24.00
2019-04-22T19:41:56.561Z,24.00
2019-04-22T19:44:10.316Z,24.00
2019-04-22T19:46:34.413Z,24.00
2019-04-22T19:49:14.133Z,24.00
2019-04-22T19:51:37.085Z,24.00
2019-04-22T19:54:06.304Z,24.00
2019-04-22T19:56:22.675Z,23.90
2019-04-22T19:58:54.796Z,23.90
2019-04-22T20:01:41.682Z,23.90
2019-04-22T20:06:47.799Z,23.90
2019-04-22T20:09:26.862Z,23.90
2019-04-22T20:11:49.512Z,23.90
2019-04-22T20:14:17.047Z,23.90
2019-04-22T20:16:41.213Z,23.90
2019-04-22T20:19:19.341Z,23.90
2019-04-22T20:21:49.367Z,23.90
2019-04-22T20:24:02.035Z,23.80
2019-04-22T20:26:45.431Z,23.80
2019-04-22T20:29:19.221Z,23.80
2019-04-22T20:31:48.672Z,23.80
2019-04-22T20:34:14.415Z,23.80
2019-04-22T20:38:59.391Z,23.80
2019-04-22T20:41:31.751Z,23.80
2019-04-22T20:44:05.169Z,23.80
2019-04-22T20:46:33.002Z,23.80
2019-04-22T20:49:00.213Z,23.70
2019-04-22T20:51:42.338Z,23.70
2019-04-22T20:54:02.156Z,23.70
2019-04-22T20:56:25.621Z,23.80
